Floris, Iowa
Current Conditions -  °F | °C
As of 4:53 PM on Wednesday 17 Dec 2014 (Local Time) from KOTM Reporting Station
Clear Clear  
Wind Chill: 14°   Ceiling: Unl
Heat Index: 22°   Visibility: 10mi
Dew Point: 16°   Wind: 6mph
Humidity: 78%   Direction: 340°NNW
Pressure: 30.28"   Gusts: NA
Location:  40.87°N, 92.33°W
Report Text: KOTM 172253Z AUTO 34005KT 10SM CLR M06/M09 A3028 RMK AO2 SLP269 T10561089
Loading
Personal Weather Stations






























Interactive Weather Map New forecast layout! Learn more

10-Day Weather Forecast

Advertisements
Track Severe Weather on mobile